createdAt,value
2023-05-14T00:01:19.617Z,12.08
2023-05-14T00:03:46.145Z,12.13
2023-05-14T00:06:12.818Z,12.17
2023-05-14T00:08:39.340Z,12.18
2023-05-14T00:11:05.897Z,12.18
2023-05-14T00:13:32.471Z,12.13
2023-05-14T00:15:58.966Z,12.09
2023-05-14T00:18:25.626Z,12.03
2023-05-14T00:20:54.761Z,11.98
2023-05-14T00:23:22.583Z,11.95
2023-05-14T00:25:49.632Z,11.93
2023-05-14T00:28:16.796Z,11.92
2023-05-14T00:30:44.683Z,11.91
2023-05-14T00:33:11.382Z,11.94
2023-05-14T00:35:38.001Z,11.95
2023-05-14T00:38:05.011Z,11.94
2023-05-14T00:40:31.604Z,11.95
2023-05-14T00:42:58.133Z,11.97
2023-05-14T00:45:25.626Z,11.98
2023-05-14T00:47:53.474Z,11.97
2023-05-14T00:50:21.127Z,11.96
2023-05-14T00:52:47.979Z,11.96
2023-05-14T00:55:16.978Z,11.98
2023-05-14T00:57:44.262Z,11.98
2023-05-14T01:00:11.339Z,11.99
2023-05-14T01:02:38.103Z,12.02
2023-05-14T01:05:05.690Z,12.04
2023-05-14T01:07:55.263Z,12.04
2023-05-14T01:10:39.080Z,12.02
2023-05-14T01:13:21.848Z,12.01
2023-05-14T01:15:49.237Z,12.04
2023-05-14T01:18:18.288Z,12.08
2023-05-14T01:20:45.960Z,12.09
2023-05-14T01:23:12.457Z,12.10
2023-05-14T01:25:38.981Z,12.11
2023-05-14T01:28:15.393Z,12.12
2023-05-14T01:30:57.343Z,12.10
2023-05-14T01:33:27.644Z,12.06
2023-05-14T01:35:54.970Z,12.01
2023-05-14T01:38:23.338Z,11.96
2023-05-14T01:40:50.822Z,11.92
2023-05-14T01:43:18.750Z,11.88
2023-05-14T01:45:45.534Z,11.86
2023-05-14T01:48:12.565Z,11.86
2023-05-14T01:50:39.156Z,11.75
2023-05-14T01:53:05.789Z,11.09
2023-05-14T01:55:32.322Z,10.32
2023-05-14T01:57:59.007Z,9.85
2023-05-14T02:00:26.268Z,10.05
2023-05-14T02:02:53.163Z,10.35
2023-05-14T02:05:19.817Z,10.57
2023-05-14T02:07:46.414Z,10.71
2023-05-14T02:10:13.316Z,10.81
2023-05-14T02:12:39.925Z,10.88
2023-05-14T02:15:08.917Z,10.95
2023-05-14T02:17:39.190Z,11.01
2023-05-14T02:20:06.411Z,11.03
2023-05-14T02:22:33.061Z,11.06
2023-05-14T02:24:59.562Z,11.05
2023-05-14T02:27:26.135Z,11.05
2023-05-14T02:29:52.852Z,11.09
2023-05-14T02:32:19.497Z,11.12
2023-05-14T02:34:46.076Z,11.16
2023-05-14T02:37:12.649Z,11.19
2023-05-14T02:39:39.140Z,11.21
2023-05-14T02:42:06.988Z,11.22
2023-05-14T02:44:33.688Z,11.21
2023-05-14T02:47:00.252Z,11.19
2023-05-14T02:49:26.783Z,11.20
2023-05-14T02:51:54.350Z,11.26
2023-05-14T02:54:20.927Z,11.24
2023-05-14T02:56:47.574Z,11.09
2023-05-14T02:59:14.369Z,10.97
2023-05-14T03:01:41.425Z,10.95
2023-05-14T03:04:08.645Z,10.99
2023-05-14T03:06:35.264Z,11.05
2023-05-14T03:09:01.810Z,11.10
2023-05-14T03:11:28.421Z,11.16
2023-05-14T03:13:54.950Z,11.23
2023-05-14T03:16:21.497Z,11.31
2023-05-14T03:18:48.142Z,11.39
2023-05-14T03:21:14.803Z,11.44
2023-05-14T03:23:41.517Z,11.47
2023-05-14T03:26:13.955Z,11.53
2023-05-14T03:28:40.838Z,11.54
2023-05-14T03:31:07.466Z,11.57
2023-05-14T03:33:34.074Z,11.63
2023-05-14T03:36:00.630Z,11.67
2023-05-14T03:38:27.205Z,11.74
2023-05-14T03:40:53.712Z,11.80
2023-05-14T03:43:20.356Z,11.85
2023-05-14T03:45:52.257Z,11.92
2023-05-14T03:48:19.772Z,11.99
2023-05-14T03:50:46.908Z,12.08
2023-05-14T03:53:13.524Z,12.19
2023-05-14T03:55:40.138Z,12.28
2023-05-14T03:58:14.360Z,12.42
2023-05-14T04:00:44.109Z,12.54
2023-05-14T04:03:11.263Z,12.68
2023-05-14T04:05:37.900Z,12.82
2023-05-14T04:08:04.587Z,12.86
2023-05-14T04:10:32.022Z,12.29
2023-05-14T04:12:59.505Z,11.64
2023-05-14T04:15:31.026Z,11.42
2023-05-14T04:17:57.709Z,11.97
2023-05-14T04:20:24.475Z,12.40
2023-05-14T04:22:51.171Z,12.69
2023-05-14T04:25:18.508Z,12.91
2023-05-14T04:27:45.304Z,13.17
2023-05-14T04:30:12.486Z,13.44
2023-05-14T04:32:39.230Z,13.71
2023-05-14T04:35:06.642Z,13.88
2023-05-14T04:37:33.365Z,13.51
2023-05-14T04:40:00.910Z,13.00
2023-05-14T04:42:27.545Z,12.77
2023-05-14T04:44:54.033Z,13.21
2023-05-14T04:47:21.125Z,13.84
2023-05-14T04:49:47.841Z,14.36
2023-05-14T04:52:14.365Z,14.40
2023-05-14T04:54:41.060Z,13.91
2023-05-14T04:57:07.598Z,13.58
2023-05-14T04:59:34.185Z,13.99
2023-05-14T05:02:00.699Z,14.56
2023-05-14T05:04:27.794Z,14.51
2023-05-14T05:06:54.305Z,14.13
2023-05-14T05:09:21.285Z,13.86
2023-05-14T05:11:47.816Z,13.85
2023-05-14T05:14:14.367Z,14.42
2023-05-14T05:16:40.972Z,14.48
2023-05-14T05:19:07.588Z,14.29
2023-05-14T05:21:34.799Z,14.17
2023-05-14T05:24:01.275Z,14.08
2023-05-14T05:26:28.091Z,14.04
2023-05-14T05:28:54.656Z,14.04
2023-05-14T05:31:21.268Z,14.08
2023-05-14T05:33:48.100Z,14.14
2023-05-14T05:36:14.670Z,14.22
2023-05-14T05:38:41.357Z,14.33
2023-05-14T05:41:08.073Z,14.45
2023-05-14T05:43:34.713Z,14.59
2023-05-14T05:46:01.617Z,14.73
2023-05-14T05:48:28.321Z,14.87
2023-05-14T05:50:55.126Z,15.00
2023-05-14T05:53:21.766Z,15.14
2023-05-14T05:55:48.371Z,15.28
2023-05-14T05:58:17.155Z,15.44
2023-05-14T06:00:44.009Z,15.59
2023-05-14T06:03:11.303Z,15.73
2023-05-14T06:05:38.060Z,15.88
2023-05-14T06:08:05.101Z,16.03
2023-05-14T06:10:31.980Z,16.18
2023-05-14T06:12:58.531Z,16.34
2023-05-14T06:15:25.129Z,16.49
2023-05-14T06:17:51.886Z,16.66
2023-05-14T06:20:19.086Z,16.84
2023-05-14T06:22:45.718Z,17.02
2023-05-14T06:25:12.365Z,17.18
2023-05-14T06:27:38.950Z,17.34
2023-05-14T06:30:07.015Z,17.49
2023-05-14T06:32:33.603Z,17.64
2023-05-14T06:35:00.188Z,17.79
2023-05-14T06:37:26.792Z,17.94
2023-05-14T06:39:54.750Z,18.07
2023-05-14T06:42:23.031Z,18.21
2023-05-14T06:44:49.568Z,18.38
2023-05-14T06:47:16.205Z,18.51
2023-05-14T06:49:42.801Z,18.69
2023-05-14T06:52:09.336Z,19.27
2023-05-14T06:54:36.020Z,20.60
2023-05-14T06:57:02.618Z,22.31
2023-05-14T06:59:29.309Z,23.96
2023-05-14T07:01:55.938Z,25.46
2023-05-14T07:04:22.636Z,26.65
2023-05-14T07:06:49.365Z,27.64
2023-05-14T07:09:16.528Z,28.40
2023-05-14T07:11:43.475Z,28.98
2023-05-14T07:14:10.057Z,29.52
2023-05-14T07:16:37.109Z,30.06
2023-05-14T07:19:03.741Z,30.50
2023-05-14T07:21:30.355Z,30.86
2023-05-14T07:23:56.938Z,31.03
2023-05-14T07:26:24.579Z,30.98
2023-05-14T07:28:51.297Z,30.84
2023-05-14T07:31:17.934Z,31.01
2023-05-14T07:33:47.507Z,31.53
2023-05-14T07:36:14.085Z,32.30
2023-05-14T07:38:40.774Z,33.16
2023-05-14T07:41:07.891Z,33.67
2023-05-14T07:43:34.651Z,34.05
2023-05-14T07:46:01.220Z,34.55
2023-05-14T07:48:27.827Z,35.11
2023-05-14T07:50:54.617Z,35.27
2023-05-14T07:53:22.006Z,35.18
2023-05-14T07:55:49.285Z,35.31
2023-05-14T07:58:16.752Z,35.02
2023-05-14T08:00:43.538Z,34.97
2023-05-14T08:03:10.435Z,35.35
2023-05-14T08:05:39.621Z,36.03
2023-05-14T08:08:06.612Z,36.80
2023-05-14T08:10:33.217Z,37.36
2023-05-14T08:12:59.785Z,37.86
2023-05-14T08:15:27.831Z,38.09
2023-05-14T08:17:54.952Z,37.92
2023-05-14T08:20:22.218Z,37.46
2023-05-14T08:22:48.964Z,36.95
2023-05-14T08:25:15.665Z,36.66
2023-05-14T08:27:42.238Z,36.22
2023-05-14T08:30:09.209Z,35.12
2023-05-14T08:32:35.857Z,34.93
2023-05-14T08:35:02.502Z,34.98
2023-05-14T08:37:29.084Z,34.99
2023-05-14T08:39:56.244Z,34.75
2023-05-14T08:42:24.724Z,34.29
2023-05-14T08:45:00.908Z,33.90
2023-05-14T08:47:30.237Z,34.14
2023-05-14T08:50:08.156Z,34.59
2023-05-14T08:52:35.042Z,35.04
2023-05-14T08:55:05.592Z,34.39
2023-05-14T08:57:33.316Z,33.90
2023-05-14T09:00:00.423Z,33.52
2023-05-14T09:02:31.550Z,33.32
2023-05-14T09:05:00.101Z,33.23
2023-05-14T09:07:27.544Z,33.36
2023-05-14T09:09:54.988Z,33.14
2023-05-14T09:12:22.135Z,33.14
2023-05-14T09:14:49.788Z,33.49
2023-05-14T09:17:17.432Z,33.10
2023-05-14T09:19:47.352Z,32.88
2023-05-14T09:22:15.975Z,33.00
2023-05-14T09:24:43.178Z,33.57
2023-05-14T09:27:15.246Z,34.34
2023-05-14T09:29:41.851Z,35.07
2023-05-14T09:32:10.274Z,35.61
2023-05-14T09:34:39.699Z,35.31
2023-05-14T09:37:08.016Z,35.22
2023-05-14T09:39:36.502Z,35.10
2023-05-14T09:42:03.784Z,34.26
2023-05-14T09:44:30.726Z,34.23
2023-05-14T09:46:57.620Z,34.12
2023-05-14T09:49:24.215Z,33.17
2023-05-14T09:51:51.583Z,32.95
2023-05-14T09:54:18.252Z,32.12
2023-05-14T09:56:44.969Z,31.98
2023-05-14T09:59:11.662Z,32.03
2023-05-14T10:01:38.621Z,32.06
2023-05-14T10:04:08.188Z,32.16
2023-05-14T10:06:39.325Z,32.50
2023-05-14T10:09:12.372Z,33.19
2023-05-14T10:11:43.623Z,33.92
2023-05-14T10:14:20.714Z,33.73
2023-05-14T10:16:51.087Z,33.11
2023-05-14T10:19:20.805Z,32.68
2023-05-14T10:21:59.778Z,31.85
2023-05-14T10:24:27.482Z,30.93
2023-05-14T10:26:54.321Z,30.48
2023-05-14T10:29:31.484Z,30.74
2023-05-14T10:31:58.007Z,30.80
2023-05-14T10:34:34.571Z,31.18
2023-05-14T10:37:02.369Z,31.84
2023-05-14T10:39:49.634Z,32.41
2023-05-14T10:42:21.719Z,32.24
2023-05-14T10:45:01.531Z,31.64
2023-05-14T10:47:29.521Z,31.18
2023-05-14T10:50:03.788Z,31.51
2023-05-14T10:52:31.064Z,31.62
2023-05-14T10:55:03.691Z,31.65
2023-05-14T10:57:32.309Z,31.78
2023-05-14T11:00:03.174Z,32.26
2023-05-14T11:02:41.253Z,32.67
2023-05-14T11:05:11.034Z,32.52
2023-05-14T11:07:38.517Z,32.30
2023-05-14T11:10:10.239Z,32.23
2023-05-14T11:12:40.941Z,32.72
2023-05-14T11:15:13.296Z,32.70
2023-05-14T11:17:41.650Z,33.22
2023-05-14T11:20:09.610Z,33.79
2023-05-14T11:22:37.436Z,33.31
2023-05-14T11:25:04.861Z,32.19
2023-05-14T11:27:33.591Z,32.30
2023-05-14T11:30:01.051Z,32.06
2023-05-14T11:32:27.858Z,31.55
2023-05-14T11:34:54.587Z,31.40
2023-05-14T11:37:24.136Z,31.42
2023-05-14T11:39:52.852Z,31.50
2023-05-14T11:42:20.855Z,31.90
2023-05-14T11:44:49.080Z,32.29
2023-05-14T11:47:18.262Z,31.92
2023-05-14T11:49:45.885Z,31.96
2023-05-14T11:52:14.859Z,32.05
2023-05-14T11:54:43.039Z,32.32
2023-05-14T11:57:12.596Z,31.86
2023-05-14T11:59:39.888Z,31.12
2023-05-14T12:02:10.599Z,30.46
2023-05-14T12:04:37.391Z,30.49
2023-05-14T12:07:12.877Z,31.10
2023-05-14T12:09:44.207Z,31.81
2023-05-14T12:12:12.874Z,32.25
2023-05-14T12:14:45.410Z,31.79
2023-05-14T12:17:14.969Z,31.86
2023-05-14T12:19:42.546Z,31.96
2023-05-14T12:22:11.005Z,31.99
2023-05-14T12:24:39.179Z,31.90
2023-05-14T12:27:07.402Z,31.82
2023-05-14T12:29:41.334Z,31.83
2023-05-14T12:32:09.321Z,31.84
2023-05-14T12:34:37.888Z,31.83
2023-05-14T12:37:05.583Z,31.98
2023-05-14T12:39:35.660Z,32.07
2023-05-14T12:42:02.427Z,31.74
2023-05-14T12:44:29.114Z,31.30
2023-05-14T12:46:56.045Z,31.11
2023-05-14T12:49:22.750Z,31.23
2023-05-14T12:51:51.209Z,31.52
2023-05-14T12:54:24.352Z,31.75
2023-05-14T12:56:50.967Z,31.40
2023-05-14T12:59:17.612Z,30.67
2023-05-14T13:01:44.273Z,30.36
2023-05-14T13:04:14.416Z,30.23
2023-05-14T13:06:41.346Z,30.48
2023-05-14T13:09:08.753Z,30.96
2023-05-14T13:11:35.712Z,30.91
2023-05-14T13:14:02.568Z,30.44
2023-05-14T13:16:30.122Z,29.95
2023-05-14T13:18:56.812Z,29.79
2023-05-14T13:21:23.378Z,29.88
2023-05-14T13:23:49.923Z,30.04
2023-05-14T13:26:16.491Z,30.03
2023-05-14T13:28:43.328Z,29.76
2023-05-14T13:31:11.930Z,29.31
2023-05-14T13:33:40.883Z,28.94
2023-05-14T13:36:08.438Z,28.70
2023-05-14T13:38:35.418Z,28.20
2023-05-14T13:41:02.721Z,27.50
2023-05-14T13:43:33.921Z,26.96
2023-05-14T13:46:01.562Z,26.67
2023-05-14T13:48:28.481Z,26.48
2023-05-14T13:50:55.163Z,26.34
2023-05-14T13:53:23.117Z,26.20
2023-05-14T13:55:50.410Z,25.91
2023-05-14T13:58:17.227Z,25.64
2023-05-14T14:00:43.907Z,25.25
2023-05-14T14:03:10.715Z,24.97
2023-05-14T14:05:37.701Z,24.85
2023-05-14T14:08:17.769Z,24.83
2023-05-14T14:10:49.834Z,24.83
2023-05-14T14:13:16.447Z,24.77
2023-05-14T14:15:43.691Z,24.61
2023-05-14T14:18:10.469Z,24.37
2023-05-14T14:20:37.191Z,24.23
2023-05-14T14:23:03.927Z,24.14
2023-05-14T14:25:30.630Z,24.02
2023-05-14T14:27:57.354Z,23.87
2023-05-14T14:30:24.052Z,23.79
2023-05-14T14:32:51.190Z,23.64
2023-05-14T14:35:19.381Z,23.59
2023-05-14T14:37:49.347Z,23.57
2023-05-14T14:40:17.172Z,23.57
2023-05-14T14:42:44.378Z,23.56
2023-05-14T14:45:12.119Z,23.51
2023-05-14T14:47:38.976Z,23.44
2023-05-14T14:50:06.486Z,23.41
2023-05-14T14:52:33.207Z,23.35
2023-05-14T14:54:59.816Z,23.31
2023-05-14T14:57:26.879Z,23.26
2023-05-14T14:59:53.468Z,23.21
2023-05-14T15:02:20.264Z,23.21
2023-05-14T15:04:46.898Z,23.24
2023-05-14T15:07:15.937Z,23.27
2023-05-14T15:09:43.357Z,23.26
2023-05-14T15:12:11.185Z,23.19
2023-05-14T15:14:37.831Z,23.04
2023-05-14T15:17:04.619Z,22.90
2023-05-14T15:19:32.282Z,22.83
2023-05-14T15:21:58.861Z,22.78
2023-05-14T15:24:26.174Z,22.73
2023-05-14T15:26:53.661Z,22.75
2023-05-14T15:29:20.530Z,22.75
2023-05-14T15:31:47.271Z,22.71
2023-05-14T15:34:14.000Z,22.63
2023-05-14T15:36:40.812Z,22.57
2023-05-14T15:39:10.298Z,22.57
2023-05-14T15:41:38.124Z,22.56
2023-05-14T15:44:05.024Z,22.52
2023-05-14T15:46:32.193Z,22.53
2023-05-14T15:48:58.769Z,22.53
2023-05-14T15:51:25.477Z,22.53
2023-05-14T15:53:54.096Z,22.51
2023-05-14T15:56:23.794Z,22.47
2023-05-14T15:58:50.536Z,22.40
2023-05-14T16:01:19.371Z,22.35
2023-05-14T16:03:46.159Z,22.30
2023-05-14T16:06:13.048Z,22.24
2023-05-14T16:08:39.698Z,22.20
2023-05-14T16:11:07.585Z,22.18
2023-05-14T16:13:37.597Z,22.15
2023-05-14T16:16:04.398Z,22.14
2023-05-14T16:18:31.112Z,22.11
2023-05-14T16:20:57.815Z,22.09
2023-05-14T16:23:24.367Z,22.05
2023-05-14T16:25:51.079Z,22.00
2023-05-14T16:28:17.672Z,21.97
2023-05-14T16:30:47.259Z,21.96
2023-05-14T16:33:13.904Z,21.94
2023-05-14T16:35:40.504Z,21.91
2023-05-14T16:38:07.118Z,21.89
2023-05-14T16:40:33.677Z,21.83
2023-05-14T16:43:00.376Z,21.78
2023-05-14T16:45:27.198Z,21.78
2023-05-14T16:47:54.153Z,21.77
2023-05-14T16:50:20.967Z,21.72
2023-05-14T16:52:47.595Z,21.68
2023-05-14T16:55:14.296Z,21.63
2023-05-14T16:57:41.039Z,21.57
2023-05-14T17:00:09.882Z,21.53
2023-05-14T17:02:36.978Z,21.49
2023-05-14T17:05:04.164Z,21.43
2023-05-14T17:07:31.439Z,21.36
2023-05-14T17:09:58.610Z,21.34
2023-05-14T17:12:26.098Z,21.32
2023-05-14T17:14:53.071Z,21.29
2023-05-14T17:17:19.600Z,21.23
2023-05-14T17:19:46.261Z,21.17
2023-05-14T17:22:15.807Z,21.12
2023-05-14T17:24:42.397Z,21.05
2023-05-14T17:27:09.129Z,20.98
2023-05-14T17:29:35.721Z,20.91
2023-05-14T17:32:03.645Z,20.82
2023-05-14T17:34:30.495Z,20.72
2023-05-14T17:36:57.384Z,20.63
2023-05-14T17:39:24.019Z,20.53
2023-05-14T17:41:50.607Z,20.42
2023-05-14T17:44:17.192Z,20.31
2023-05-14T17:46:44.667Z,20.20
2023-05-14T17:49:11.991Z,20.09
2023-05-14T17:51:38.539Z,19.98
2023-05-14T17:54:05.200Z,19.86
2023-05-14T17:56:31.864Z,19.73
2023-05-14T17:58:58.537Z,19.60
2023-05-14T18:01:25.133Z,19.46
2023-05-14T18:03:52.269Z,19.33
2023-05-14T18:06:18.899Z,19.18
2023-05-14T18:08:45.479Z,19.05
2023-05-14T18:11:12.349Z,18.91
2023-05-14T18:13:38.949Z,18.77
2023-05-14T18:16:05.736Z,18.62
2023-05-14T18:18:32.378Z,18.48
2023-05-14T18:20:59.133Z,18.35
2023-05-14T18:23:25.742Z,18.22
2023-05-14T18:25:52.381Z,18.11
2023-05-14T18:28:21.339Z,18.02
2023-05-14T18:30:49.337Z,17.92
2023-05-14T18:33:16.202Z,17.81
2023-05-14T18:35:43.716Z,17.70
2023-05-14T18:38:11.855Z,17.59
2023-05-14T18:40:38.533Z,17.47
2023-05-14T18:43:05.225Z,17.36
2023-05-14T18:45:31.882Z,17.25
2023-05-14T18:47:58.558Z,17.15
2023-05-14T18:50:25.099Z,17.04
2023-05-14T18:52:51.653Z,16.95
2023-05-14T18:55:18.290Z,16.86
2023-05-14T18:57:44.934Z,16.79
2023-05-14T19:00:14.332Z,16.70
2023-05-14T19:02:41.405Z,16.63
2023-05-14T19:05:08.349Z,16.55
2023-05-14T19:07:35.063Z,16.47
2023-05-14T19:10:01.689Z,16.40
2023-05-14T19:12:29.489Z,16.33
2023-05-14T19:14:56.093Z,16.26
2023-05-14T19:17:22.778Z,16.19
2023-05-14T19:19:49.418Z,16.12
2023-05-14T19:22:18.585Z,16.04
2023-05-14T19:24:45.114Z,15.94
2023-05-14T19:27:16.039Z,15.83
2023-05-14T19:29:43.661Z,15.73
2023-05-14T19:32:10.542Z,15.65
2023-05-14T19:34:37.149Z,15.59
2023-05-14T19:37:04.662Z,15.58
2023-05-14T19:39:31.520Z,15.58
2023-05-14T19:41:59.398Z,15.57
2023-05-14T19:44:26.024Z,15.58
2023-05-14T19:46:52.720Z,15.60
2023-05-14T19:49:19.367Z,15.62
2023-05-14T19:51:46.007Z,15.62
2023-05-14T19:54:12.648Z,15.61
2023-05-14T19:56:39.248Z,15.56
2023-05-14T19:59:05.961Z,15.48
2023-05-14T20:01:34.334Z,15.39
2023-05-14T20:04:01.236Z,15.30
2023-05-14T20:06:28.058Z,15.20
2023-05-14T20:08:55.333Z,15.10
2023-05-14T20:11:21.936Z,15.00
2023-05-14T20:13:49.707Z,14.90
2023-05-14T20:16:16.884Z,14.79
2023-05-14T20:18:44.303Z,14.68
2023-05-14T20:21:11.044Z,14.58
2023-05-14T20:23:37.760Z,14.50
2023-05-14T20:26:04.618Z,14.41
2023-05-14T20:28:31.471Z,14.34
2023-05-14T20:31:02.928Z,14.27
2023-05-14T20:33:30.752Z,14.20
2023-05-14T20:35:57.490Z,14.14
2023-05-14T20:38:25.659Z,14.07
2023-05-14T20:40:52.210Z,13.99
2023-05-14T20:43:18.826Z,13.93
2023-05-14T20:45:45.482Z,13.88
2023-05-14T20:48:16.096Z,13.83
2023-05-14T20:50:43.311Z,13.83
2023-05-14T20:53:09.967Z,13.86
2023-05-14T20:55:36.695Z,13.91
2023-05-14T20:58:03.457Z,13.97
2023-05-14T21:00:30.276Z,14.02
2023-05-14T21:02:57.396Z,14.07
2023-05-14T21:05:24.884Z,14.11
2023-05-14T21:07:51.725Z,14.18
2023-05-14T21:10:18.581Z,14.24
2023-05-14T21:12:45.290Z,14.29
2023-05-14T21:15:11.989Z,14.33
2023-05-14T21:17:38.700Z,14.38
2023-05-14T21:20:06.343Z,14.44
2023-05-14T21:22:33.111Z,14.47
2023-05-14T21:24:59.728Z,14.50
2023-05-14T21:27:26.713Z,14.53
2023-05-14T21:29:53.432Z,14.56
2023-05-14T21:32:22.128Z,14.60
2023-05-14T21:34:49.240Z,14.63
2023-05-14T21:37:15.936Z,14.65
2023-05-14T21:39:42.446Z,14.67
2023-05-14T21:42:09.629Z,14.69
2023-05-14T21:44:36.303Z,14.69
2023-05-14T21:47:03.852Z,14.70
2023-05-14T21:49:30.605Z,14.71
2023-05-14T21:51:57.354Z,14.74
2023-05-14T21:54:24.090Z,14.75
2023-05-14T21:56:50.946Z,14.79
2023-05-14T21:59:17.629Z,14.81
2023-05-14T22:04:13.890Z,14.86
2023-05-14T22:06:40.895Z,14.87
2023-05-14T22:09:10.633Z,14.89
2023-05-14T22:11:37.392Z,14.91
2023-05-14T22:14:03.971Z,14.96
2023-05-14T22:16:30.723Z,15.02
2023-05-14T22:18:57.421Z,15.06
2023-05-14T22:21:24.073Z,15.11
2023-05-14T22:23:50.728Z,15.14
2023-05-14T22:26:17.355Z,15.18
2023-05-14T22:28:43.903Z,15.22
2023-05-14T22:31:10.710Z,15.24
2023-05-14T22:33:37.387Z,15.24
2023-05-14T22:36:06.894Z,15.25
2023-05-14T22:38:34.074Z,15.28
2023-05-14T22:41:00.642Z,15.30
2023-05-14T22:43:27.225Z,15.30
2023-05-14T22:45:53.803Z,15.31
2023-05-14T22:48:20.293Z,15.33
2023-05-14T22:50:46.774Z,15.33
2023-05-14T22:53:13.514Z,15.34
2023-05-14T22:55:40.107Z,15.33
2023-05-14T22:58:07.055Z,15.34
2023-05-14T23:00:33.608Z,15.35
2023-05-14T23:03:00.332Z,15.34
2023-05-14T23:05:27.235Z,15.34
2023-05-14T23:07:55.320Z,15.36
2023-05-14T23:10:21.961Z,15.37
2023-05-14T23:12:48.479Z,15.38
2023-05-14T23:15:15.240Z,15.41
2023-05-14T23:17:42.004Z,15.44
2023-05-14T23:20:12.595Z,15.44
2023-05-14T23:22:40.143Z,15.45
2023-05-14T23:25:07.700Z,15.45
2023-05-14T23:27:34.932Z,15.46
2023-05-14T23:30:03.086Z,15.46
2023-05-14T23:32:29.846Z,15.47
2023-05-14T23:34:56.368Z,15.45
2023-05-14T23:37:23.203Z,15.43
2023-05-14T23:39:50.105Z,15.42
2023-05-14T23:42:16.669Z,15.41
2023-05-14T23:44:43.363Z,15.41
2023-05-14T23:47:10.148Z,15.44
2023-05-14T23:49:36.857Z,15.47
2023-05-14T23:52:03.546Z,15.48
2023-05-14T23:54:30.179Z,15.47
2023-05-14T23:56:56.745Z,15.49
2023-05-14T23:59:23.270Z,15.51
